KDFI/DFI METAR and TAF weather

Enter ICAO airport designator
Station Type Date Time Source
KDFI METAR 2018/01/19 22:53 UTC NOAA

KDFI 192253Z AUTO 20011KT 10SM CLR 00/M06 A2988 RMK AO2 SLP129 T00001056


Station Type Date Time Source
KDFI Decoded METAR 2018/01/19 22:53 UTC NOAA

DEFIANCE MEMORIAL AIRPORT, OH, United States (KDFI) 41-20N 84-26W 219M
Jan 19, 2018 - 05:53 PM EST / 2018.01.19 2253 UTC
Wind: from the SSW (200 degrees) at 13 MPH (11 KT):0
Visibility: 10 mile(s):0
Sky conditions: clear
Temperature: 32.0 F (0.0 C)
Windchill: 23 F (-5 C):1
Dew Point: 21.9 F (-5.6 C)
Relative Humidity: 65%
Pressure (altimeter): 29.88 in. Hg (1011 hPa)
ob: KDFI 192253Z AUTO 20011KT 10SM CLR 00/M06 A2988 RMK AO2 SLP129 T00001056
cycle: 23

Station Type Date Time Source
KDFI TAF UTC NOAA

Error!


Example: see airport list